Aérodrome :
LOGIN :

S'inscrire | Disclaimer

   EN    FR    IT 

 










Légende :    VFR   VFR Marginal   IFR   IFR Intensif   IFR Très Intensif
Visi : 
Plafond : 
>= 8 km
>= 3000ft
5 à 8 km
1000 à 3000 ft
1500m à 5 km
500 à 1000 ft
800 à 1500m
200 à 500 ft
< 800m
< 200 ft
Symboles :   Orages  Brouillard  Fortes neiges  Fortes précipitations  Vent > 20 kt
SIGMETs :   Divers  Orages  Givrage  Turbulence  Onde Orograph.  Cendres Volcan.






- Altitude de l'aérodrome : 401 ft
- Code IATA : LEQ


EGHC - Land's End

DERNIER METAR :
  • 100920Z 20028G38KT 0300 -DZ FG BKN000 11/11 Q1012

METARs EXPIRÉS :
  • 100850Z 21028G38KT 1500 -DZ BR BKN000 11/11 Q1012
  • 100820Z 20028G29KT 0200 -DZ FG VV/// 11/10 Q1012
  • 100750Z 20027G37KT 1500 -RA BR BKN000 11/10 Q1013
  • 100720Z 20028G38KT 2000 -RA BR BKN000 11/11 Q1013

TAF AMD TAF EGHC
Valide du 10 à 09h jusqu'au 10 à 18h UTC


100856Z 1009/1018 22032G45KT 2000 -DZ BR BKN002
TEMPO 1009/1015 1400 RA BKN001
PROB40
TEMPO 1009/1015 0300 FG
BECMG 1015/1018 27022G32KT FEW010 SCT025
TEMPO 1015/1018 7000 RA
PROB40
TEMPO 1015/1018 3000 +RA



MET'MAP, la Météo Aéronautique d'un coup d'oeil ! - Copyright ORBIFLY Décembre 2007 - Disclaimer

ORBIFLY MET'MAP TEAM :

Programmation & Développement : Alexandra Zaïnal
Sur une idée originale de : Baudouin d'Aumeries
Assistance à la programmation : Marc-Olivier Méhu
Soutien technique & logistique : Manuel Goepfert

Contact : metmap@orbifly.com




SOURCES & CREDITS :

   NOAA